createdAt,value
2022-09-17T00:01:37.695Z,97251.72
2022-09-17T00:04:06.515Z,97254.03
2022-09-17T00:06:35.979Z,97241.53
2022-09-17T00:09:06.818Z,97248.44
2022-09-17T00:11:38.622Z,97249.44
2022-09-17T00:14:10.196Z,97254.13
2022-09-17T00:16:45.233Z,97252.38
2022-09-17T00:19:23.055Z,97258.94
2022-09-17T00:21:51.553Z,97257.75
2022-09-17T00:24:20.814Z,97254.88
2022-09-17T00:26:50.188Z,97255.00
2022-09-17T00:29:18.123Z,97256.25
2022-09-17T00:31:45.960Z,97256.06
2022-09-17T00:34:13.898Z,97250.38
2022-09-17T00:36:42.135Z,97251.31
2022-09-17T00:39:12.495Z,97250.88
2022-09-17T00:41:40.294Z,97250.25
2022-09-17T00:44:43.389Z,97251.53
2022-09-17T00:47:16.201Z,97247.72
2022-09-17T00:49:44.739Z,97250.88
2022-09-17T00:52:21.924Z,97248.38
2022-09-17T00:55:15.863Z,97247.66
2022-09-17T00:57:46.023Z,97259.00
2022-09-17T01:00:16.180Z,97261.88
2022-09-17T01:02:45.008Z,97253.84
2022-09-17T01:05:14.038Z,97262.88
2022-09-17T01:07:57.725Z,97266.53
2022-09-17T01:10:43.986Z,97259.28
2022-09-17T01:14:05.707Z,97257.31
2022-09-17T01:16:53.785Z,97266.81
2022-09-17T01:19:38.150Z,97268.59
2022-09-17T01:23:03.056Z,97266.84
2022-09-17T01:26:05.920Z,97261.59
2022-09-17T01:28:53.729Z,97280.84
2022-09-17T01:31:49.149Z,97288.50
2022-09-17T01:34:59.509Z,97288.38
2022-09-17T01:37:57.767Z,97283.31
2022-09-17T01:40:41.804Z,97284.19
2022-09-17T01:43:49.996Z,97284.81
2022-09-17T01:46:33.971Z,97288.97
2022-09-17T01:49:06.850Z,97285.56
2022-09-17T01:51:43.302Z,97289.31
2022-09-17T01:54:43.031Z,97281.41
2022-09-17T01:57:36.447Z,97284.91
2022-09-17T02:00:12.477Z,97288.38
2022-09-17T02:03:05.698Z,97289.13
2022-09-17T02:05:50.643Z,97287.63
2022-09-17T02:08:26.324Z,97287.97
2022-09-17T02:11:06.661Z,97279.44
2022-09-17T02:13:46.313Z,97283.59
2022-09-17T02:16:24.824Z,97277.91
2022-09-17T02:19:10.869Z,97283.78
2022-09-17T02:22:27.551Z,97283.22
2022-09-17T02:25:08.499Z,97285.09
2022-09-17T02:28:06.147Z,97278.03
2022-09-17T02:30:34.442Z,97274.84
2022-09-17T02:33:05.121Z,97279.78
2022-09-17T02:35:33.412Z,97286.56
2022-09-17T02:38:01.384Z,97274.19
2022-09-17T02:40:37.831Z,97274.19
2022-09-17T02:43:50.895Z,97277.63
2022-09-17T02:46:55.297Z,97283.72
2022-09-17T02:49:58.979Z,97281.66
2022-09-17T02:52:49.365Z,97281.38
2022-09-17T02:55:23.123Z,97274.94
2022-09-17T02:58:04.438Z,97270.47
2022-09-17T03:00:32.745Z,97274.19
2022-09-17T03:03:26.656Z,97276.97
2022-09-17T03:05:55.157Z,97274.78
2022-09-17T03:08:30.562Z,97277.63
2022-09-17T03:10:58.349Z,97274.66
2022-09-17T03:13:26.231Z,97281.13
2022-09-17T03:15:54.057Z,97268.69
2022-09-17T03:18:21.801Z,97270.72
2022-09-17T03:20:50.032Z,97273.75
2022-09-17T03:23:17.744Z,97270.06
2022-09-17T03:25:47.325Z,97265.19
2022-09-17T03:28:15.438Z,97275.16
2022-09-17T03:30:45.568Z,97274.50
2022-09-17T03:33:14.432Z,97279.91
2022-09-17T03:35:46.496Z,97275.50
2022-09-17T03:38:14.640Z,97266.38
2022-09-17T03:40:42.725Z,97283.75
2022-09-17T03:43:11.166Z,97277.03
2022-09-17T03:45:38.909Z,97273.75
2022-09-17T03:48:06.617Z,97284.59
2022-09-17T03:50:34.463Z,97277.72
2022-09-17T03:53:02.216Z,97283.78
2022-09-17T03:55:29.998Z,97283.56
2022-09-17T03:57:57.715Z,97287.19
2022-09-17T04:00:25.741Z,97291.84
2022-09-17T04:02:53.548Z,97292.47
2022-09-17T04:05:21.368Z,97308.50
2022-09-17T04:07:49.224Z,97299.53
2022-09-17T04:10:17.452Z,97307.00
2022-09-17T04:12:45.361Z,97314.34
2022-09-17T04:15:13.112Z,97301.78
2022-09-17T04:17:41.074Z,97305.09
2022-09-17T04:20:09.430Z,97302.38
2022-09-17T04:22:37.146Z,97294.59
2022-09-17T04:25:05.488Z,97302.69
2022-09-17T04:27:33.225Z,97293.03
2022-09-17T04:30:01.804Z,97305.22
2022-09-17T04:32:29.549Z,97306.00
2022-09-17T04:34:57.338Z,97307.75
2022-09-17T04:37:25.909Z,97316.59
2022-09-17T04:39:53.858Z,97316.19
2022-09-17T04:42:21.600Z,97321.09
2022-09-17T04:44:49.337Z,97311.81
2022-09-17T04:47:17.066Z,97324.94
2022-09-17T04:49:44.997Z,97326.28
2022-09-17T04:52:12.708Z,97322.19
2022-09-17T04:54:40.501Z,97334.88
2022-09-17T04:57:08.420Z,97332.50
2022-09-17T04:59:36.227Z,97336.22
2022-09-17T05:02:04.020Z,97340.75
2022-09-17T05:04:31.852Z,97342.22
2022-09-17T05:07:00.319Z,97341.47
2022-09-17T05:09:28.117Z,97345.88
2022-09-17T05:11:55.910Z,97349.34
2022-09-17T05:14:23.689Z,97353.63
2022-09-17T05:16:51.448Z,97345.25
2022-09-17T05:19:19.156Z,97350.41
2022-09-17T05:21:47.198Z,97340.84
2022-09-17T05:24:14.921Z,97335.22
2022-09-17T05:26:42.697Z,97342.22
2022-09-17T05:29:10.489Z,97335.59
2022-09-17T05:31:38.356Z,97339.91
2022-09-17T05:34:06.214Z,97332.50
2022-09-17T05:36:33.977Z,97342.41
2022-09-17T05:39:02.281Z,97340.41
2022-09-17T05:41:30.186Z,97345.31
2022-09-17T05:43:57.935Z,97358.53
2022-09-17T05:46:26.390Z,97356.28
2022-09-17T05:48:57.462Z,97359.31
2022-09-17T05:51:25.464Z,97354.03
2022-09-17T05:53:56.221Z,97362.75
2022-09-17T05:56:24.175Z,97364.53
2022-09-17T05:58:57.031Z,97368.59
2022-09-17T06:01:25.087Z,97365.28
2022-09-17T06:03:53.825Z,97369.56
2022-09-17T06:06:21.585Z,97369.22
2022-09-17T06:08:49.391Z,97367.44
2022-09-17T06:11:17.086Z,97377.22
2022-09-17T06:13:44.820Z,97371.66
2022-09-17T06:16:12.613Z,97381.66
2022-09-17T06:18:40.357Z,97385.81
2022-09-17T06:21:08.047Z,97393.28
2022-09-17T06:23:35.874Z,97389.25
2022-09-17T06:26:05.843Z,97386.56
2022-09-17T06:28:35.857Z,97390.81
2022-09-17T06:31:09.411Z,97391.97
2022-09-17T06:33:37.623Z,97403.97
2022-09-17T06:36:13.743Z,97394.63
2022-09-17T06:38:42.864Z,97394.38
2022-09-17T06:41:10.632Z,97398.91
2022-09-17T06:43:39.335Z,97403.44
2022-09-17T06:46:09.205Z,97402.47
2022-09-17T06:48:38.374Z,97402.72
2022-09-17T06:51:11.127Z,97406.81
2022-09-17T06:53:39.727Z,97405.84
2022-09-17T06:56:09.189Z,97415.91
2022-09-17T06:58:37.951Z,97413.53
2022-09-17T07:01:06.155Z,97412.75
2022-09-17T07:03:35.692Z,97398.91
2022-09-17T07:06:04.015Z,97416.03
2022-09-17T07:08:34.702Z,97417.09
2022-09-17T07:11:02.907Z,97411.13
2022-09-17T07:13:30.707Z,97413.50
2022-09-17T07:16:01.286Z,97419.06
2022-09-17T07:18:29.133Z,97418.78
2022-09-17T07:21:02.818Z,97420.16
2022-09-17T07:23:34.734Z,97430.56
2022-09-17T07:26:06.883Z,97419.75
2022-09-17T07:28:35.190Z,97427.94
2022-09-17T07:31:05.546Z,97430.16
2022-09-17T07:33:35.903Z,97433.94
2022-09-17T07:36:07.631Z,97429.75
2022-09-17T07:38:35.605Z,97431.84
2022-09-17T07:41:15.652Z,97439.84
2022-09-17T07:43:44.481Z,97439.78
2022-09-17T07:46:18.094Z,97443.72
2022-09-17T07:48:48.037Z,97444.56
2022-09-17T07:51:22.300Z,97446.03
2022-09-17T07:53:57.969Z,97451.47
2022-09-17T07:56:27.435Z,97447.38
2022-09-17T07:58:56.262Z,97451.06
2022-09-17T08:01:24.424Z,97459.78
2022-09-17T08:03:54.363Z,97457.84
2022-09-17T08:06:28.351Z,97460.16
2022-09-17T08:09:00.180Z,97476.44
2022-09-17T08:11:52.212Z,97467.50
2022-09-17T08:14:17.958Z,97460.25
2022-09-17T08:16:47.433Z,97464.72
2022-09-17T08:19:15.269Z,97466.22
2022-09-17T08:21:42.987Z,97468.03
2022-09-17T08:24:10.749Z,97473.25
2022-09-17T08:26:39.798Z,97471.59
2022-09-17T08:29:07.739Z,97465.06
2022-09-17T08:31:35.545Z,97461.19
2022-09-17T08:34:09.670Z,97462.47
2022-09-17T08:36:37.895Z,97463.75
2022-09-17T08:39:05.901Z,97465.16
2022-09-17T08:41:52.457Z,97459.38
2022-09-17T08:44:34.689Z,97465.53
2022-09-17T08:47:26.536Z,97463.94
2022-09-17T08:50:00.594Z,97463.66
2022-09-17T08:52:52.296Z,97472.13
2022-09-17T08:55:35.169Z,97465.66
2022-09-17T08:58:35.293Z,97469.63
2022-09-17T09:01:21.011Z,97474.25
2022-09-17T09:04:26.378Z,97460.84
2022-09-17T09:07:24.129Z,97472.69
2022-09-17T09:10:17.848Z,97470.09
2022-09-17T09:12:47.357Z,97470.50
2022-09-17T09:15:27.307Z,97476.75
2022-09-17T09:17:57.925Z,97474.25
2022-09-17T09:21:04.117Z,97482.91
2022-09-17T09:23:56.845Z,97478.53
2022-09-17T09:27:02.400Z,97483.03
2022-09-17T09:29:58.556Z,97487.16
2022-09-17T09:33:07.048Z,97479.63
2022-09-17T09:35:39.565Z,97483.22
2022-09-17T09:38:25.342Z,97473.63
2022-09-17T09:41:37.579Z,97478.78
2022-09-17T09:44:11.446Z,97474.34
2022-09-17T09:46:42.217Z,97483.50
2022-09-17T09:49:25.031Z,97473.88
2022-09-17T09:52:07.749Z,97478.28
2022-09-17T09:54:54.013Z,97468.88
2022-09-17T09:57:52.321Z,97469.81
2022-09-17T10:00:39.327Z,97475.63
2022-09-17T10:03:26.782Z,97472.97
2022-09-17T10:06:04.929Z,97461.94
2022-09-17T10:08:39.087Z,97469.28
2022-09-17T10:11:22.041Z,97479.94
2022-09-17T10:13:50.176Z,97472.03
2022-09-17T10:16:24.497Z,97473.56
2022-09-17T10:19:04.354Z,97459.13
2022-09-17T10:21:39.522Z,97463.50
2022-09-17T10:24:31.139Z,97458.47
2022-09-17T10:27:18.127Z,97457.59
2022-09-17T10:29:49.309Z,97471.53
2022-09-17T10:32:20.739Z,97472.72
2022-09-17T10:35:16.958Z,97459.78
2022-09-17T10:37:51.282Z,97481.94
2022-09-17T10:40:19.025Z,97460.19
2022-09-17T10:43:21.609Z,97455.69
2022-09-17T10:45:59.686Z,97448.34
2022-09-17T10:48:45.039Z,97448.00
2022-09-17T10:51:23.355Z,97440.34
2022-09-17T10:54:44.849Z,97450.59
2022-09-17T10:57:29.206Z,97436.09
2022-09-17T11:00:21.582Z,97444.88
2022-09-17T11:03:10.848Z,97447.16
2022-09-17T11:06:16.970Z,97445.84
2022-09-17T11:09:05.926Z,97449.34
2022-09-17T11:12:07.826Z,97444.44
2022-09-17T11:14:56.870Z,97445.22
2022-09-17T11:18:03.870Z,97436.94
2022-09-17T11:21:03.498Z,97428.75
2022-09-17T11:24:02.401Z,97420.91
2022-09-17T11:27:00.760Z,97425.72
2022-09-17T11:30:04.540Z,97429.81
2022-09-17T11:33:14.234Z,97450.41
2022-09-17T11:35:47.612Z,97421.09
2022-09-17T11:38:27.043Z,97426.31
2022-09-17T11:41:46.805Z,97429.97
2022-09-17T11:44:21.093Z,97431.31
2022-09-17T11:47:02.868Z,97421.00
2022-09-17T11:49:46.626Z,97408.94
2022-09-17T11:52:41.545Z,97428.72
2022-09-17T11:55:22.799Z,97415.53
2022-09-17T11:57:57.941Z,97422.13
2022-09-17T12:00:28.640Z,97421.84
2022-09-17T12:03:36.035Z,97423.53
2022-09-17T12:06:16.365Z,97422.94
2022-09-17T12:09:19.168Z,97434.50
2022-09-17T12:11:59.362Z,97439.44
2022-09-17T12:15:03.689Z,97423.19
2022-09-17T12:17:42.489Z,97422.31
2022-09-17T12:20:37.470Z,97417.28
2022-09-17T12:23:15.083Z,97438.59
2022-09-17T12:26:12.458Z,97442.53
2022-09-17T12:29:05.915Z,97448.97
2022-09-17T12:31:52.508Z,97435.03
2022-09-17T12:34:29.248Z,97436.28
2022-09-17T12:37:17.330Z,97438.47
2022-09-17T12:39:54.015Z,97422.03
2022-09-17T12:42:33.013Z,97429.69
2022-09-17T12:45:42.419Z,97423.22
2022-09-17T12:48:29.185Z,97429.94
2022-09-17T12:51:53.138Z,97431.88
2022-09-17T12:55:24.803Z,97430.06
2022-09-17T12:58:07.580Z,97422.50
2022-09-17T13:00:48.141Z,97432.91
2022-09-17T13:03:29.375Z,97425.09
2022-09-17T13:07:04.247Z,97418.13
2022-09-17T13:10:15.326Z,97430.69
2022-09-17T13:12:49.774Z,97432.88
2022-09-17T13:15:36.154Z,97436.31
2022-09-17T13:21:55.781Z,97442.81
2022-09-17T13:24:27.271Z,97435.50
2022-09-17T13:26:56.155Z,97437.16
2022-09-17T13:29:46.094Z,97426.41
2022-09-17T13:32:32.685Z,97433.19
2022-09-17T13:35:15.246Z,97429.59
2022-09-17T13:38:04.506Z,97427.69
2022-09-17T13:40:36.969Z,97425.38
2022-09-17T13:43:06.247Z,97427.88
2022-09-17T13:45:59.494Z,97424.19
2022-09-17T13:48:34.763Z,97413.13
2022-09-17T13:51:30.381Z,97423.72
2022-09-17T13:54:07.998Z,97416.56
2022-09-17T13:56:46.239Z,97419.44
2022-09-17T13:59:18.184Z,97408.38
2022-09-17T14:02:18.650Z,97409.28
2022-09-17T14:04:52.506Z,97405.22
2022-09-17T14:07:28.978Z,97403.19
2022-09-17T14:10:02.887Z,97411.47
2022-09-17T14:12:44.534Z,97420.63
2022-09-17T14:15:31.977Z,97392.78
2022-09-17T14:18:00.085Z,97398.53
2022-09-17T14:20:28.728Z,97409.72
2022-09-17T14:23:03.540Z,97393.50
2022-09-17T14:25:58.492Z,97403.47
2022-09-17T14:28:30.771Z,97394.19
2022-09-17T14:31:02.892Z,97391.69
2022-09-17T14:33:32.462Z,97393.00
2022-09-17T14:36:10.690Z,97390.31
2022-09-17T14:38:45.063Z,97391.50
2022-09-17T14:41:12.856Z,97396.06
2022-09-17T14:43:49.542Z,97394.63
2022-09-17T14:46:37.514Z,97400.81
2022-09-17T14:49:24.524Z,97387.78
2022-09-17T14:51:55.719Z,97391.75
2022-09-17T14:54:36.499Z,97388.00
2022-09-17T14:57:29.637Z,97375.53
2022-09-17T14:59:58.212Z,97383.09
2022-09-17T15:02:45.362Z,97380.50
2022-09-17T15:05:27.317Z,97388.63
2022-09-17T15:08:10.414Z,97385.72
2022-09-17T15:11:03.157Z,97397.50
2022-09-17T15:13:57.296Z,97391.63
2022-09-17T15:16:27.971Z,97397.00
2022-09-17T15:18:58.720Z,97397.72
2022-09-17T15:21:49.332Z,97392.22
2022-09-17T15:24:38.927Z,97400.75
2022-09-17T15:27:34.227Z,97389.38
2022-09-17T15:30:20.405Z,97394.31
2022-09-17T15:32:57.608Z,97393.16
2022-09-17T15:35:30.565Z,97382.72
2022-09-17T15:38:22.362Z,97384.88
2022-09-17T15:40:51.823Z,97380.34
2022-09-17T15:43:25.494Z,97380.53
2022-09-17T15:45:54.002Z,97392.09
2022-09-17T15:48:27.458Z,97380.50
2022-09-17T15:50:57.965Z,97386.31
2022-09-17T15:53:28.427Z,97389.59
2022-09-17T15:56:17.810Z,97386.56
2022-09-17T15:58:45.581Z,97388.03
2022-09-17T16:01:15.994Z,97387.63
2022-09-17T16:03:43.675Z,97387.66
2022-09-17T16:06:20.929Z,97390.69
2022-09-17T16:08:55.486Z,97398.34
2022-09-17T16:11:26.679Z,97386.59
2022-09-17T16:14:00.897Z,97393.28
2022-09-17T16:16:37.566Z,97399.66
2022-09-17T16:19:06.860Z,97398.00
2022-09-17T16:21:34.596Z,97402.81
2022-09-17T16:24:02.462Z,97403.59
2022-09-17T16:26:33.711Z,97413.53
2022-09-17T16:29:17.243Z,97412.38
2022-09-17T16:31:45.241Z,97406.72
2022-09-17T16:34:13.089Z,97410.84
2022-09-17T16:36:41.077Z,97406.78
2022-09-17T16:39:08.818Z,97410.78
2022-09-17T16:41:36.541Z,97411.34
2022-09-17T16:44:04.547Z,97412.66
2022-09-17T16:46:32.358Z,97405.34
2022-09-17T16:49:00.805Z,97415.88
2022-09-17T16:51:28.656Z,97410.31
2022-09-17T16:53:57.811Z,97427.50
2022-09-17T16:56:26.164Z,97457.03
2022-09-17T16:58:57.046Z,97443.19
2022-09-17T17:01:24.981Z,97447.19
2022-09-17T17:03:54.213Z,97436.00
2022-09-17T17:06:22.751Z,97435.50
2022-09-17T17:08:51.794Z,97426.19
2022-09-17T17:11:19.509Z,97428.34
2022-09-17T17:13:47.579Z,97430.34
2022-09-17T17:16:16.246Z,97441.00
2022-09-17T17:18:44.997Z,97455.81
2022-09-17T17:21:14.475Z,97456.00
2022-09-17T17:23:47.218Z,97450.56
2022-09-17T17:26:16.777Z,97449.16
2022-09-17T17:28:44.673Z,97461.25
2022-09-17T17:31:12.443Z,97455.38
2022-09-17T17:33:40.376Z,97458.13
2022-09-17T17:36:08.731Z,97459.22
2022-09-17T17:38:37.267Z,97467.66
2022-09-17T17:41:14.118Z,97456.75
2022-09-17T17:43:42.366Z,97462.25
2022-09-17T17:46:11.845Z,97462.38
2022-09-17T17:48:39.860Z,97454.63
2022-09-17T17:51:09.700Z,97455.25
2022-09-17T17:53:41.735Z,97453.78
2022-09-17T17:56:11.172Z,97458.00
2022-09-17T17:58:40.028Z,97461.19
2022-09-17T18:01:20.910Z,97462.78
2022-09-17T18:03:49.027Z,97461.03
2022-09-17T18:06:16.936Z,97471.09
2022-09-17T18:08:44.823Z,97467.28
2022-09-17T18:11:12.745Z,97465.91
2022-09-17T18:13:40.679Z,97463.97
2022-09-17T18:16:12.374Z,97473.94
2022-09-17T18:18:44.948Z,97476.25
2022-09-17T18:21:22.190Z,97472.25
2022-09-17T18:23:51.059Z,97487.97
2022-09-17T18:26:25.563Z,97479.69
2022-09-17T18:28:53.773Z,97497.56
2022-09-17T18:31:22.903Z,97497.78
2022-09-17T18:34:13.475Z,97499.53
2022-09-17T18:36:44.700Z,97505.72
2022-09-17T18:39:53.291Z,97515.13
2022-09-17T18:42:04.501Z,97516.44
2022-09-17T18:44:32.333Z,97519.84
2022-09-17T18:47:00.295Z,97515.88
2022-09-17T18:49:28.098Z,97521.94
2022-09-17T18:51:55.881Z,97525.34
2022-09-17T18:54:23.645Z,97534.97
2022-09-17T18:56:51.376Z,97541.09
2022-09-17T18:59:19.163Z,97542.53
2022-09-17T19:01:46.955Z,97516.59
2022-09-17T19:04:14.766Z,97537.81
2022-09-17T19:06:42.492Z,97544.47
2022-09-17T19:09:11.631Z,97551.00
2022-09-17T19:11:39.365Z,97569.91
2022-09-17T19:14:10.591Z,97572.44
2022-09-17T19:16:38.348Z,97574.19
2022-09-17T19:19:06.051Z,97570.09
2022-09-17T19:21:33.773Z,97570.09
2022-09-17T19:24:03.324Z,97569.16
2022-09-17T19:26:31.192Z,97570.75
2022-09-17T19:29:00.523Z,97580.22
2022-09-17T19:31:28.955Z,97583.06
2022-09-17T19:33:58.822Z,97584.44
2022-09-17T19:36:26.842Z,97587.75
2022-09-17T19:38:55.127Z,97586.44
2022-09-17T19:41:23.405Z,97585.34
2022-09-17T19:43:53.507Z,97589.91
2022-09-17T19:46:26.843Z,97590.25
2022-09-17T19:48:57.202Z,97597.47
2022-09-17T19:51:29.699Z,97592.97
2022-09-17T19:53:57.977Z,97601.94
2022-09-17T19:56:28.257Z,97603.03
2022-09-17T19:58:56.834Z,97600.78
2022-09-17T20:01:24.779Z,97605.16
2022-09-17T20:03:55.529Z,97608.22
2022-09-17T20:06:24.074Z,97597.53
2022-09-17T20:08:54.705Z,97605.84
2022-09-17T20:11:25.293Z,97610.94
2022-09-17T20:14:07.433Z,97602.75
2022-09-17T20:16:38.464Z,97602.25
2022-09-17T20:19:08.051Z,97602.97
2022-09-17T20:21:35.879Z,97606.09
2022-09-17T20:24:06.942Z,97604.16
2022-09-17T20:26:35.394Z,97593.81
2022-09-17T20:29:03.922Z,97593.47
2022-09-17T20:31:32.498Z,97589.81
2022-09-17T20:34:02.899Z,97595.22
2022-09-17T20:36:35.351Z,97601.69
2022-09-17T20:39:22.867Z,97592.31
2022-09-17T20:41:51.085Z,97595.72
2022-09-17T20:44:18.971Z,97605.47
2022-09-17T20:46:47.137Z,97607.06
2022-09-17T20:49:15.134Z,97617.91
2022-09-17T20:51:42.975Z,97623.16
2022-09-17T20:54:11.084Z,97634.47
2022-09-17T20:56:38.920Z,97627.16
2022-09-17T20:59:25.000Z,97631.78
2022-09-17T21:01:53.649Z,97623.31
2022-09-17T21:04:22.382Z,97632.03
2022-09-17T21:06:54.018Z,97624.16
2022-09-17T21:09:21.776Z,97614.94
2022-09-17T21:11:49.910Z,97623.47
2022-09-17T21:14:18.511Z,97613.03
2022-09-17T21:16:47.007Z,97645.16
2022-09-17T21:19:17.254Z,97637.66
2022-09-17T21:21:45.041Z,97647.47
2022-09-17T21:24:12.893Z,97640.38
2022-09-17T21:26:40.691Z,97635.41
2022-09-17T21:29:08.704Z,97636.38
2022-09-17T21:31:37.974Z,97639.34
2022-09-17T21:34:10.011Z,97645.09
2022-09-17T21:36:40.156Z,97648.22
2022-09-17T21:39:14.456Z,97636.38
2022-09-17T21:41:43.969Z,97639.59
2022-09-17T21:44:12.728Z,97647.78
2022-09-17T21:46:42.663Z,97641.13
2022-09-17T21:49:11.264Z,97635.31
2022-09-17T21:51:41.962Z,97640.22
2022-09-17T21:54:13.957Z,97641.75
2022-09-17T21:56:42.023Z,97642.06
2022-09-17T21:59:13.217Z,97644.72
2022-09-17T22:01:46.656Z,97649.09
2022-09-17T22:04:20.445Z,97637.63
2022-09-17T22:06:49.922Z,97644.69
2022-09-17T22:09:26.234Z,97643.09
2022-09-17T22:11:54.065Z,97655.38
2022-09-17T22:14:25.334Z,97647.53
2022-09-17T22:16:57.234Z,97652.09
2022-09-17T22:19:25.928Z,97661.09
2022-09-17T22:21:55.582Z,97650.41
2022-09-17T22:24:25.153Z,97655.03
2022-09-17T22:26:57.894Z,97642.84
2022-09-17T22:29:28.629Z,97647.78
2022-09-17T22:31:57.289Z,97638.50
2022-09-17T22:34:26.475Z,97648.53
2022-09-17T22:36:54.272Z,97640.03
2022-09-17T22:39:22.569Z,97635.78
2022-09-17T22:41:51.106Z,97635.88
2022-09-17T22:44:20.580Z,97629.56
2022-09-17T22:46:51.411Z,97629.72
2022-09-17T22:49:19.586Z,97633.44
2022-09-17T22:51:47.676Z,97628.56
2022-09-17T22:54:18.793Z,97635.72
2022-09-17T22:56:48.254Z,97636.88
2022-09-17T22:59:18.229Z,97654.09
2022-09-17T23:01:46.421Z,97642.44
2022-09-17T23:04:14.293Z,97643.47
2022-09-17T23:06:42.262Z,97652.00
2022-09-17T23:09:12.203Z,97640.13
2022-09-17T23:11:40.367Z,97648.53
2022-09-17T23:14:12.147Z,97659.94
2022-09-17T23:16:47.446Z,97635.56
2022-09-17T23:19:18.341Z,97644.81
2022-09-17T23:21:46.581Z,97633.97
2022-09-17T23:24:21.000Z,97646.91
2022-09-17T23:26:50.004Z,97637.41
2022-09-17T23:29:18.556Z,97630.31
2022-09-17T23:31:46.305Z,97633.59
2022-09-17T23:34:14.080Z,97637.41
2022-09-17T23:36:41.825Z,97636.91
2022-09-17T23:39:11.958Z,97646.59
2022-09-17T23:41:43.439Z,97639.31
2022-09-17T23:44:15.712Z,97641.66
2022-09-17T23:46:45.174Z,97633.00
2022-09-17T23:49:14.384Z,97639.13
2022-09-17T23:51:42.596Z,97649.66
2022-09-17T23:54:10.854Z,97646.97
2022-09-17T23:56:38.630Z,97646.50
2022-09-17T23:59:08.518Z,97646.13
